Flight Track Log - Related Links

Times and Time Zones

All times are in EDT time to prevent confusion due to time zone crossing. See the N309JB flight status page for this flight to view local times or setup timezone preferences in your user account.

Time Position Orientation Groundspeed Altitude Reporting Facility
EDT Latitude Longitude Course Direction KTS MPH feet Rate Location/Type
Thu 05:49:27 PM 42.3500 -71.0167 130° Southeast 144 166 800  Level Boston TRACON
Thu 05:54:39 PM 42.1983 -70.7697 260° West 243 280 13,000 2,129 Climbing Boston Center
Thu 05:55:39 PM 42.1833 -70.8794 267° West 235 270 14,000 1,150 Climbing Boston Center
Thu 05:56:39 PM 42.1786 -70.9917 261° West 306 352 15,300 2,350 Climbing Boston Center
Thu 05:57:39 PM 42.1636 -71.1236 262° West 329 379 18,700 2,950 Climbing Boston Center
Thu 05:58:39 PM 42.1503 -71.2528 259° West 337 388 21,200 2,200 Climbing Boston Center
Thu 05:59:39 PM 42.1328 -71.3792 259° West 337 388 23,100 1,850 Climbing Boston Center
Thu 06:00:39 PM 42.1153 -71.5053 261° West 342 394 24,900 1,700 Climbing Boston Center
Thu 06:01:39 PM 42.0994 -71.6342 260° West 348 400 26,500 1,350 Climbing Boston Center
Thu 06:02:39 PM 42.0817 -71.7744 256° West 367 422 27,600 1,150 Climbing Boston Center
Thu 06:03:39 PM 42.0575 -71.9089 258° West 373 429 28,800 1,250 Climbing Boston Center
Thu 06:04:39 PM 42.0350 -72.0517 257° West 379 436 30,100 1,350 Climbing Boston Center
Thu 06:05:39 PM 42.0103 -72.1914 238° Southwest 384 442 31,500 950 Climbing Boston Center
Thu 06:06:39 PM 41.9564 -72.3061 235° Southwest 363 418 32,000 250 Climbing Boston Center
Thu 06:07:39 PM 41.8981 -72.4178 236° Southwest 368 423 32,000  Level Boston Center
Thu 06:08:39 PM 41.8378 -72.5375 234° Southwest 381 438 32,000 -400 Level Boston Center
Thu 06:09:39 PM 41.7728 -72.6572 236° Southwest 393 452 31,200 -900 Descending Boston Center
Thu 06:10:39 PM 41.7122 -72.7767 234° Southwest 399 459 30,200 -1,000 Descending Boston Center
Thu 06:11:39 PM 41.6514 -72.8875 235° Southwest 393 452 29,200 -1,000 Descending Boston Center
Thu 06:12:39 PM 41.5925 -72.9981 236° Southwest 381 438 28,200 -600 Descending Boston Center
Thu 06:13:39 PM 41.5378 -73.1058 234° Southwest 369 425 28,000 -100 Descending Boston Center
Thu 06:14:39 PM 41.4808 -73.2103 235° Southwest 364 419 28,000  Level Boston Center
Thu 06:15:39 PM 41.4281 -73.3094 235° Southwest 359 413 28,000  Level Boston Center
Thu 06:16:39 PM 41.3708 -73.4192 234° Southwest 359 413 28,000  Level Boston Center
Thu 06:19:00 PM 41.2281 -73.6761 231° Southwest 357 411 28,000  Level New York Center
Thu 06:20:12 PM 41.1650 -73.7808 231° Southwest 357 411 28,000  Level New York Center
Thu 06:21:11 PM 41.0908 -73.9042 231° Southwest 362 417 28,000  Level New York Center
Thu 06:22:10 PM 41.0297 -74.0058 231° Southwest 362 417 28,000  Level New York Center
Thu 06:23:11 PM 40.9686 -74.1072 231° Southwest 362 417 28,000  Level New York Center
Thu 06:24:12 PM 40.9139 -74.1981 232° Southwest 362 417 28,000  Level New York Center
Thu 06:25:22 PM 40.8506 -74.3044 232° Southwest 367 422 28,000  Level New York Center
Thu 06:26:22 PM 40.7781 -74.4267 229° Southwest 362 417 28,000  Level New York Center
Thu 06:27:23 PM 40.7144 -74.5247 229° Southwest 362 417 28,000  Level New York Center
Thu 06:28:23 PM 40.6486 -74.6250 228° Southwest 362 417 28,000  Level New York Center
Thu 06:29:25 PM 40.5831 -74.7222 228° Southwest 362 417 28,000 -641 Level New York Center
Thu 06:30:34 PM 40.5172 -74.8197 227° Southwest 362 417 26,600 -1,767 Descending New York Center
Thu 06:31:34 PM 40.4317 -74.9400 227° Southwest 356 410 24,200 -2,033 Descending New York Center
Thu 06:32:35 PM 40.3725 -75.0236 229° Southwest 356 410 22,500 -1,820 Descending New York Center
Thu 06:33:36 PM 40.3042 -75.1256 228° Southwest 351 404 20,500 -1,721 Descending New York Center
Thu 06:34:37 PM 40.2489 -75.2064 228° Southwest 343 395 19,000 -756 Descending New York Center
Thu 06:35:35 PM 40.1850 -75.3000 227° Southwest 348 400 19,000  Level New York Center
Thu 06:36:36 PM 40.1144 -75.3986 227° Southwest 348 400 19,000  Level New York Center
Thu 06:37:36 PM 40.0569 -75.4789 226° Southwest 348 400 19,000  Level New York Center
Thu 06:38:34 PM 39.9864 -75.5744 228° Southwest 348 400 19,000  Level New York Center
Thu 06:39:35 PM 39.9289 -75.6569 233° Southwest 343 395 19,000 -148 Level New York Center
Thu 06:40:36 PM 39.8681 -75.7636 235° Southwest 342 394 18,700 -1,125 Descending New York Center
Thu 06:42:31 PM 39.7667 -75.9500 237° Southwest 327 376 15,700 -1,943 Descending Potomac TRACON
Thu 06:43:32 PM 39.7167 -76.0500 237° Southwest 333 383 13,000 -2,083 Descending Potomac TRACON
Thu 06:44:32 PM 39.6667 -76.1500 218° Southwest 289 333 11,500 -1,650 Descending Potomac TRACON
Thu 06:45:32 PM 39.6000 -76.2167 218° Southwest 276 318 9,700 -1,722 Descending Potomac TRACON
Thu 06:46:27 PM 39.5500 -76.2667 218° Southwest 271 312 8,200 -1,602 Descending Potomac TRACON
Thu 06:48:28 PM 39.4333 -76.3833 201° Southwest 262 302 5,000 -1,127 Descending Potomac TRACON
Thu 06:49:28 PM 39.3667 -76.4167 180° South 282 325 4,800 -476 Descending Potomac TRACON
Thu 06:50:34 PM 39.2833 -76.4167 201° Southwest 280 322 4,000 -645 Descending Potomac TRACON
Thu 06:51:29 PM 39.2167 -76.4500 201° Southwest 253 291 3,500 -522 Descending Potomac TRACON
Thu 06:52:29 PM 39.1500 -76.4833 207° Southwest 239 275 3,000 -650 Descending Potomac TRACON
Thu 06:53:29 PM 39.1000 -76.5167 270° West 202 232 2,200 -750 Descending Potomac TRACON
Thu 06:54:29 PM 39.1000 -76.5667 293° West 166 191 1,500 -397 Descending Potomac TRACON
Thu 06:55:30 PM 39.1167 -76.6167 322° Northwest 144 166 1,400 -378 Descending Potomac TRACON
Thu 06:56:36 PM 39.1500 -76.6500 322° Northwest 125 144 700 -636 Descending Potomac TRACON

Login

Don't have an account? Register now (free) for customized features, flight alerts, and more!